sensor_id;sensor_type;location;lat;lon;timestamp;P1;durP1;ratioP1;P2;durP2;ratioP2
73841;SDS011;62184;52.006;5.924;2022-07-29T00:00:25;5.47;;;2.10;;
73841;SDS011;62184;52.006;5.924;2022-07-29T00:02:51;6.35;;;1.80;;
73841;SDS011;62184;52.006;5.924;2022-07-29T00:05:17;5.00;;;2.20;;
73841;SDS011;62184;52.006;5.924;2022-07-29T00:07:44;4.70;;;2.10;;
73841;SDS011;62184;52.006;5.924;2022-07-29T00:10:10;6.13;;;2.70;;
73841;SDS011;62184;52.006;5.924;2022-07-29T00:12:37;6.07;;;2.70;;
73841;SDS011;62184;52.006;5.924;2022-07-29T00:15:06;5.75;;;2.55;;
73841;SDS011;62184;52.006;5.924;2022-07-29T00:17:34;6.30;;;2.38;;
73841;SDS011;62184;52.006;5.924;2022-07-29T00:20:00;6.63;;;1.90;;
73841;SDS011;62184;52.006;5.924;2022-07-29T00:22:26;5.53;;;2.03;;
73841;SDS011;62184;52.006;5.924;2022-07-29T00:24:53;5.18;;;1.90;;
73841;SDS011;62184;52.006;5.924;2022-07-29T00:27:19;5.40;;;2.17;;
73841;SDS011;62184;52.006;5.924;2022-07-29T00:29:45;4.80;;;1.88;;
73841;SDS011;62184;52.006;5.924;2022-07-29T00:32:14;7.68;;;2.13;;
73841;SDS011;62184;52.006;5.924;2022-07-29T00:34:41;5.97;;;2.00;;
73841;SDS011;62184;52.006;5.924;2022-07-29T00:37:08;4.40;;;2.30;;
73841;SDS011;62184;52.006;5.924;2022-07-29T00:39:34;7.97;;;2.70;;
73841;SDS011;62184;52.006;5.924;2022-07-29T00:42:01;5.03;;;2.08;;
73841;SDS011;62184;52.006;5.924;2022-07-29T00:44:29;4.97;;;2.00;;
73841;SDS011;62184;52.006;5.924;2022-07-29T00:46:55;6.35;;;2.53;;
73841;SDS011;62184;52.006;5.924;2022-07-29T00:49:24;6.82;;;2.38;;
73841;SDS011;62184;52.006;5.924;2022-07-29T00:51:51;5.95;;;2.55;;
73841;SDS011;62184;52.006;5.924;2022-07-29T00:54:17;5.30;;;2.30;;
73841;SDS011;62184;52.006;5.924;2022-07-29T00:56:44;5.68;;;2.15;;
73841;SDS011;62184;52.006;5.924;2022-07-29T00:59:10;6.05;;;2.28;;
73841;SDS011;62184;52.006;5.924;2022-07-29T01:01:36;5.00;;;2.45;;
73841;SDS011;62184;52.006;5.924;2022-07-29T01:04:03;4.30;;;2.15;;
73841;SDS011;62184;52.006;5.924;2022-07-29T01:06:35;7.80;;;2.95;;
73841;SDS011;62184;52.006;5.924;2022-07-29T01:09:01;5.35;;;2.55;;
73841;SDS011;62184;52.006;5.924;2022-07-29T01:11:28;6.00;;;2.42;;
73841;SDS011;62184;52.006;5.924;2022-07-29T01:13:54;7.75;;;3.08;;
73841;SDS011;62184;52.006;5.924;2022-07-29T01:16:24;4.97;;;2.80;;
73841;SDS011;62184;52.006;5.924;2022-07-29T01:19:00;7.60;;;3.35;;
73841;SDS011;62184;52.006;5.924;2022-07-29T01:21:48;5.43;;;2.33;;
73841;SDS011;62184;52.006;5.924;2022-07-29T01:24:34;7.40;;;2.83;;
73841;SDS011;62184;52.006;5.924;2022-07-29T01:27:32;5.53;;;2.55;;
73841;SDS011;62184;52.006;5.924;2022-07-29T01:30:15;6.68;;;2.72;;
73841;SDS011;62184;52.006;5.924;2022-07-29T01:32:42;4.85;;;2.28;;
73841;SDS011;62184;52.006;5.924;2022-07-29T01:35:19;8.63;;;3.20;;
73841;SDS011;62184;52.006;5.924;2022-07-29T01:37:52;7.57;;;2.60;;
73841;SDS011;62184;52.006;5.924;2022-07-29T01:40:28;5.35;;;2.30;;
73841;SDS011;62184;52.006;5.924;2022-07-29T01:43:03;5.07;;;2.63;;
73841;SDS011;62184;52.006;5.924;2022-07-29T01:45:41;5.53;;;2.55;;
73841;SDS011;62184;52.006;5.924;2022-07-29T01:48:15;4.55;;;2.65;;
73841;SDS011;62184;52.006;5.924;2022-07-29T01:50:48;5.55;;;2.55;;
73841;SDS011;62184;52.006;5.924;2022-07-29T01:53:25;5.00;;;2.67;;
73841;SDS011;62184;52.006;5.924;2022-07-29T01:55:57;8.00;;;2.80;;
73841;SDS011;62184;52.006;5.924;2022-07-29T01:58:27;4.88;;;2.78;;
73841;SDS011;62184;52.006;5.924;2022-07-29T02:00:59;5.47;;;2.88;;
73841;SDS011;62184;52.006;5.924;2022-07-29T02:03:30;5.85;;;3.47;;
73841;SDS011;62184;52.006;5.924;2022-07-29T02:06:00;4.60;;;2.50;;
73841;SDS011;62184;52.006;5.924;2022-07-29T02:08:30;5.78;;;2.78;;
73841;SDS011;62184;52.006;5.924;2022-07-29T02:11:00;6.65;;;2.33;;
73841;SDS011;62184;52.006;5.924;2022-07-29T02:13:30;4.70;;;2.20;;
73841;SDS011;62184;52.006;5.924;2022-07-29T02:16:02;7.60;;;2.60;;
73841;SDS011;62184;52.006;5.924;2022-07-29T02:18:35;6.82;;;2.80;;
73841;SDS011;62184;52.006;5.924;2022-07-29T02:21:05;5.50;;;2.50;;
73841;SDS011;62184;52.006;5.924;2022-07-29T02:23:32;5.60;;;2.58;;
73841;SDS011;62184;52.006;5.924;2022-07-29T02:26:03;6.20;;;2.40;;
73841;SDS011;62184;52.006;5.924;2022-07-29T02:28:31;5.35;;;2.60;;
73841;SDS011;62184;52.006;5.924;2022-07-29T02:31:02;5.25;;;2.55;;
73841;SDS011;62184;52.006;5.924;2022-07-29T02:33:30;6.13;;;3.15;;
73841;SDS011;62184;52.006;5.924;2022-07-29T02:35:59;6.35;;;3.40;;
73841;SDS011;62184;52.006;5.924;2022-07-29T02:38:27;5.15;;;3.17;;
73841;SDS011;62184;52.006;5.924;2022-07-29T02:40:57;5.65;;;3.05;;
73841;SDS011;62184;52.006;5.924;2022-07-29T02:43:26;7.68;;;2.83;;
73841;SDS011;62184;52.006;5.924;2022-07-29T02:45:57;6.05;;;2.58;;
73841;SDS011;62184;52.006;5.924;2022-07-29T02:48:31;6.43;;;2.90;;
73841;SDS011;62184;52.006;5.924;2022-07-29T02:51:05;5.43;;;2.90;;
73841;SDS011;62184;52.006;5.924;2022-07-29T02:53:40;5.97;;;2.80;;
73841;SDS011;62184;52.006;5.924;2022-07-29T02:56:14;5.07;;;2.50;;
73841;SDS011;62184;52.006;5.924;2022-07-29T02:58:46;7.25;;;2.95;;
73841;SDS011;62184;52.006;5.924;2022-07-29T03:01:21;6.05;;;3.20;;
73841;SDS011;62184;52.006;5.924;2022-07-29T03:03:53;8.02;;;3.10;;
73841;SDS011;62184;52.006;5.924;2022-07-29T03:06:22;7.78;;;3.00;;
73841;SDS011;62184;52.006;5.924;2022-07-29T03:08:52;6.75;;;2.80;;
73841;SDS011;62184;52.006;5.924;2022-07-29T03:11:21;6.97;;;3.60;;
73841;SDS011;62184;52.006;5.924;2022-07-29T03:13:48;6.47;;;3.08;;
73841;SDS011;62184;52.006;5.924;2022-07-29T03:16:16;7.88;;;3.35;;
73841;SDS011;62184;52.006;5.924;2022-07-29T03:18:45;7.13;;;3.28;;
73841;SDS011;62184;52.006;5.924;2022-07-29T03:21:16;8.52;;;3.53;;
73841;SDS011;62184;52.006;5.924;2022-07-29T03:23:43;7.20;;;4.38;;
73841;SDS011;62184;52.006;5.924;2022-07-29T03:26:10;8.20;;;4.05;;
73841;SDS011;62184;52.006;5.924;2022-07-29T03:28:37;7.50;;;3.80;;
73841;SDS011;62184;52.006;5.924;2022-07-29T03:31:03;6.38;;;4.03;;
73841;SDS011;62184;52.006;5.924;2022-07-29T03:33:29;7.35;;;3.80;;
73841;SDS011;62184;52.006;5.924;2022-07-29T03:35:56;7.10;;;3.90;;
73841;SDS011;62184;52.006;5.924;2022-07-29T03:38:26;9.13;;;5.20;;
73841;SDS011;62184;52.006;5.924;2022-07-29T03:40:57;9.20;;;5.65;;
73841;SDS011;62184;52.006;5.924;2022-07-29T03:43:32;8.27;;;4.47;;
73841;SDS011;62184;52.006;5.924;2022-07-29T03:46:03;8.63;;;4.30;;
73841;SDS011;62184;52.006;5.924;2022-07-29T03:48:35;8.80;;;4.27;;
73841;SDS011;62184;52.006;5.924;2022-07-29T03:51:08;7.57;;;5.05;;
73841;SDS011;62184;52.006;5.924;2022-07-29T03:53:37;7.93;;;4.75;;
73841;SDS011;62184;52.006;5.924;2022-07-29T03:56:03;8.05;;;4.90;;
73841;SDS011;62184;52.006;5.924;2022-07-29T03:58:32;9.02;;;5.13;;
73841;SDS011;62184;52.006;5.924;2022-07-29T04:01:00;9.40;;;4.97;;
73841;SDS011;62184;52.006;5.924;2022-07-29T04:03:27;9.05;;;4.60;;
73841;SDS011;62184;52.006;5.924;2022-07-29T04:06:00;8.48;;;5.45;;
73841;SDS011;62184;52.006;5.924;2022-07-29T04:08:29;9.82;;;6.03;;
73841;SDS011;62184;52.006;5.924;2022-07-29T04:10:58;8.27;;;5.50;;
73841;SDS011;62184;52.006;5.924;2022-07-29T04:13:25;8.53;;;5.00;;
73841;SDS011;62184;52.006;5.924;2022-07-29T04:15:51;9.32;;;5.63;;
73841;SDS011;62184;52.006;5.924;2022-07-29T04:18:18;8.88;;;5.50;;
73841;SDS011;62184;52.006;5.924;2022-07-29T04:20:44;8.40;;;4.85;;
73841;SDS011;62184;52.006;5.924;2022-07-29T04:23:11;7.97;;;4.07;;
73841;SDS011;62184;52.006;5.924;2022-07-29T04:25:37;8.97;;;5.40;;
73841;SDS011;62184;52.006;5.924;2022-07-29T04:28:08;14.13;;;5.88;;
73841;SDS011;62184;52.006;5.924;2022-07-29T04:30:35;8.63;;;4.97;;
73841;SDS011;62184;52.006;5.924;2022-07-29T04:33:03;8.52;;;4.82;;
73841;SDS011;62184;52.006;5.924;2022-07-29T04:35:33;9.63;;;5.13;;
73841;SDS011;62184;52.006;5.924;2022-07-29T04:38:01;8.90;;;4.90;;
73841;SDS011;62184;52.006;5.924;2022-07-29T04:40:28;8.95;;;5.22;;
73841;SDS011;62184;52.006;5.924;2022-07-29T04:42:55;10.20;;;4.80;;
73841;SDS011;62184;52.006;5.924;2022-07-29T04:45:24;8.13;;;4.40;;
73841;SDS011;62184;52.006;5.924;2022-07-29T04:47:50;8.52;;;4.70;;
73841;SDS011;62184;52.006;5.924;2022-07-29T04:50:17;9.67;;;5.10;;
73841;SDS011;62184;52.006;5.924;2022-07-29T04:52:43;8.40;;;5.45;;
73841;SDS011;62184;52.006;5.924;2022-07-29T04:55:09;8.63;;;5.65;;
73841;SDS011;62184;52.006;5.924;2022-07-29T04:57:36;8.50;;;4.38;;
73841;SDS011;62184;52.006;5.924;2022-07-29T05:00:03;8.80;;;4.75;;
73841;SDS011;62184;52.006;5.924;2022-07-29T05:02:34;8.40;;;4.60;;
73841;SDS011;62184;52.006;5.924;2022-07-29T05:05:01;7.35;;;4.88;;
73841;SDS011;62184;52.006;5.924;2022-07-29T05:07:27;9.23;;;4.95;;
73841;SDS011;62184;52.006;5.924;2022-07-29T05:09:54;8.00;;;4.65;;
73841;SDS011;62184;52.006;5.924;2022-07-29T05:12:20;8.02;;;5.40;;
73841;SDS011;62184;52.006;5.924;2022-07-29T05:14:46;10.33;;;5.03;;
73841;SDS011;62184;52.006;5.924;2022-07-29T05:17:13;6.88;;;4.53;;
73841;SDS011;62184;52.006;5.924;2022-07-29T05:19:41;9.52;;;5.53;;
73841;SDS011;62184;52.006;5.924;2022-07-29T05:22:08;8.35;;;4.95;;
73841;SDS011;62184;52.006;5.924;2022-07-29T05:24:34;8.05;;;5.45;;
73841;SDS011;62184;52.006;5.924;2022-07-29T05:27:01;8.23;;;4.20;;
73841;SDS011;62184;52.006;5.924;2022-07-29T05:29:27;6.57;;;4.20;;
73841;SDS011;62184;52.006;5.924;2022-07-29T05:31:54;9.30;;;4.82;;
73841;SDS011;62184;52.006;5.924;2022-07-29T05:34:20;8.45;;;4.80;;
73841;SDS011;62184;52.006;5.924;2022-07-29T05:36:49;7.00;;;4.43;;
73841;SDS011;62184;52.006;5.924;2022-07-29T05:39:15;8.37;;;5.03;;
73841;SDS011;62184;52.006;5.924;2022-07-29T05:41:42;8.85;;;4.95;;
73841;SDS011;62184;52.006;5.924;2022-07-29T05:44:08;7.22;;;4.40;;
73841;SDS011;62184;52.006;5.924;2022-07-29T05:46:34;8.80;;;4.47;;
73841;SDS011;62184;52.006;5.924;2022-07-29T05:49:01;7.75;;;4.68;;
73841;SDS011;62184;52.006;5.924;2022-07-29T05:51:27;7.03;;;4.32;;
73841;SDS011;62184;52.006;5.924;2022-07-29T05:53:56;8.45;;;4.57;;
73841;SDS011;62184;52.006;5.924;2022-07-29T05:56:23;8.65;;;4.80;;
73841;SDS011;62184;52.006;5.924;2022-07-29T05:58:49;8.43;;;5.57;;
73841;SDS011;62184;52.006;5.924;2022-07-29T06:01:15;8.27;;;5.07;;
73841;SDS011;62184;52.006;5.924;2022-07-29T06:03:42;9.00;;;5.65;;
73841;SDS011;62184;52.006;5.924;2022-07-29T06:06:08;7.85;;;4.53;;
73841;SDS011;62184;52.006;5.924;2022-07-29T06:08:35;8.70;;;4.75;;
73841;SDS011;62184;52.006;5.924;2022-07-29T06:11:04;10.00;;;5.43;;
73841;SDS011;62184;52.006;5.924;2022-07-29T06:13:31;8.20;;;4.57;;
73841;SDS011;62184;52.006;5.924;2022-07-29T06:15:58;8.30;;;5.22;;
73841;SDS011;62184;52.006;5.924;2022-07-29T06:18:24;8.82;;;5.30;;
73841;SDS011;62184;52.006;5.924;2022-07-29T06:20:51;9.55;;;4.93;;
73841;SDS011;62184;52.006;5.924;2022-07-29T06:23:19;7.85;;;4.47;;
73841;SDS011;62184;52.006;5.924;2022-07-29T06:25:46;8.07;;;5.05;;
73841;SDS011;62184;52.006;5.924;2022-07-29T06:28:15;12.35;;;4.72;;
73841;SDS011;62184;52.006;5.924;2022-07-29T06:30:41;7.75;;;4.43;;
73841;SDS011;62184;52.006;5.924;2022-07-29T06:33:07;7.32;;;4.88;;
73841;SDS011;62184;52.006;5.924;2022-07-29T06:35:34;8.32;;;4.82;;
73841;SDS011;62184;52.006;5.924;2022-07-29T06:38:00;7.97;;;4.72;;
73841;SDS011;62184;52.006;5.924;2022-07-29T06:40:27;7.18;;;4.07;;
73841;SDS011;62184;52.006;5.924;2022-07-29T06:42:53;9.07;;;5.20;;
73841;SDS011;62184;52.006;5.924;2022-07-29T06:45:22;7.75;;;5.10;;
73841;SDS011;62184;52.006;5.924;2022-07-29T06:47:49;6.78;;;4.38;;
73841;SDS011;62184;52.006;5.924;2022-07-29T06:50:15;8.43;;;4.95;;
73841;SDS011;62184;52.006;5.924;2022-07-29T06:52:42;8.32;;;4.93;;
73841;SDS011;62184;52.006;5.924;2022-07-29T06:55:08;6.63;;;4.55;;
73841;SDS011;62184;52.006;5.924;2022-07-29T06:57:35;7.55;;;4.82;;
73841;SDS011;62184;52.006;5.924;2022-07-29T07:00:02;6.50;;;3.65;;
73841;SDS011;62184;52.006;5.924;2022-07-29T07:02:31;11.88;;;4.40;;
73841;SDS011;62184;52.006;5.924;2022-07-29T07:04:58;6.15;;;3.45;;
73841;SDS011;62184;52.006;5.924;2022-07-29T07:07:24;8.90;;;4.30;;
73841;SDS011;62184;52.006;5.924;2022-07-29T07:09:51;7.35;;;4.35;;
73841;SDS011;62184;52.006;5.924;2022-07-29T07:12:17;6.95;;;4.32;;
73841;SDS011;62184;52.006;5.924;2022-07-29T07:14:43;8.15;;;4.65;;
73841;SDS011;62184;52.006;5.924;2022-07-29T07:17:10;9.95;;;5.00;;
73841;SDS011;62184;52.006;5.924;2022-07-29T07:19:39;7.35;;;3.92;;
73841;SDS011;62184;52.006;5.924;2022-07-29T07:22:05;7.80;;;4.20;;
73841;SDS011;62184;52.006;5.924;2022-07-29T07:24:31;7.40;;;4.47;;
73841;SDS011;62184;52.006;5.924;2022-07-29T07:26:58;6.90;;;4.28;;
73841;SDS011;62184;52.006;5.924;2022-07-29T07:29:24;8.90;;;4.40;;
73841;SDS011;62184;52.006;5.924;2022-07-29T07:31:50;7.47;;;3.50;;
73841;SDS011;62184;52.006;5.924;2022-07-29T07:34:17;6.82;;;4.47;;
73841;SDS011;62184;52.006;5.924;2022-07-29T07:36:46;8.50;;;4.05;;
73841;SDS011;62184;52.006;5.924;2022-07-29T07:39:12;8.40;;;3.90;;
73841;SDS011;62184;52.006;5.924;2022-07-29T07:41:39;7.78;;;3.95;;
73841;SDS011;62184;52.006;5.924;2022-07-29T07:44:05;7.03;;;3.50;;
73841;SDS011;62184;52.006;5.924;2022-07-29T07:46:31;6.40;;;4.00;;
73841;SDS011;62184;52.006;5.924;2022-07-29T07:48:58;8.93;;;3.55;;
73841;SDS011;62184;52.006;5.924;2022-07-29T07:51:24;8.32;;;4.20;;
73841;SDS011;62184;52.006;5.924;2022-07-29T07:53:53;6.88;;;3.58;;
73841;SDS011;62184;52.006;5.924;2022-07-29T07:56:19;9.10;;;3.78;;
73841;SDS011;62184;52.006;5.924;2022-07-29T07:58:46;7.60;;;4.40;;
73841;SDS011;62184;52.006;5.924;2022-07-29T08:01:12;7.15;;;4.15;;
73841;SDS011;62184;52.006;5.924;2022-07-29T08:03:38;6.97;;;4.82;;
73841;SDS011;62184;52.006;5.924;2022-07-29T08:06:05;7.35;;;4.75;;
73841;SDS011;62184;52.006;5.924;2022-07-29T08:08:31;7.72;;;3.85;;
73841;SDS011;62184;52.006;5.924;2022-07-29T08:11:00;7.85;;;4.20;;
73841;SDS011;62184;52.006;5.924;2022-07-29T08:13:27;6.28;;;3.58;;
73841;SDS011;62184;52.006;5.924;2022-07-29T08:15:54;7.50;;;3.38;;
73841;SDS011;62184;52.006;5.924;2022-07-29T08:18:21;9.68;;;4.28;;
73841;SDS011;62184;52.006;5.924;2022-07-29T08:20:47;7.55;;;3.92;;
73841;SDS011;62184;52.006;5.924;2022-07-29T08:23:14;8.40;;;3.83;;
73841;SDS011;62184;52.006;5.924;2022-07-29T08:25:40;7.20;;;3.92;;
73841;SDS011;62184;52.006;5.924;2022-07-29T08:28:09;7.65;;;4.10;;
73841;SDS011;62184;52.006;5.924;2022-07-29T08:30:35;8.20;;;4.60;;
73841;SDS011;62184;52.006;5.924;2022-07-29T08:33:02;8.43;;;4.47;;
73841;SDS011;62184;52.006;5.924;2022-07-29T08:35:29;10.90;;;4.28;;
73841;SDS011;62184;52.006;5.924;2022-07-29T08:37:55;8.60;;;3.90;;
73841;SDS011;62184;52.006;5.924;2022-07-29T08:40:22;6.72;;;4.25;;
73841;SDS011;62184;52.006;5.924;2022-07-29T08:42:49;8.57;;;3.97;;
73841;SDS011;62184;52.006;5.924;2022-07-29T08:45:18;7.28;;;4.22;;
73841;SDS011;62184;52.006;5.924;2022-07-29T08:47:47;7.80;;;4.25;;
73841;SDS011;62184;52.006;5.924;2022-07-29T08:50:13;8.50;;;4.43;;
73841;SDS011;62184;52.006;5.924;2022-07-29T08:52:40;7.55;;;3.45;;
73841;SDS011;62184;52.006;5.924;2022-07-29T08:55:07;8.48;;;3.88;;
73841;SDS011;62184;52.006;5.924;2022-07-29T08:57:35;8.63;;;4.30;;
73841;SDS011;62184;52.006;5.924;2022-07-29T09:00:06;7.40;;;3.65;;
73841;SDS011;62184;52.006;5.924;2022-07-29T09:02:39;8.05;;;3.55;;
73841;SDS011;62184;52.006;5.924;2022-07-29T09:05:07;7.28;;;4.30;;
73841;SDS011;62184;52.006;5.924;2022-07-29T09:07:35;6.15;;;4.10;;
73841;SDS011;62184;52.006;5.924;2022-07-29T09:10:02;8.77;;;4.25;;
73841;SDS011;62184;52.006;5.924;2022-07-29T09:12:31;7.45;;;4.10;;
73841;SDS011;62184;52.006;5.924;2022-07-29T09:14:58;7.50;;;4.07;;
73841;SDS011;62184;52.006;5.924;2022-07-29T09:20:10;10.80;;;4.10;;
73841;SDS011;62184;52.006;5.924;2022-07-29T09:22:39;6.63;;;4.10;;
73841;SDS011;62184;52.006;5.924;2022-07-29T09:25:06;7.32;;;3.92;;
73841;SDS011;62184;52.006;5.924;2022-07-29T09:27:33;7.40;;;4.40;;
73841;SDS011;62184;52.006;5.924;2022-07-29T09:30:00;9.38;;;4.30;;
73841;SDS011;62184;52.006;5.924;2022-07-29T09:32:31;8.40;;;4.30;;
73841;SDS011;62184;52.006;5.924;2022-07-29T09:37:44;8.75;;;4.90;;
73841;SDS011;62184;52.006;5.924;2022-07-29T09:40:11;7.72;;;4.20;;
73841;SDS011;62184;52.006;5.924;2022-07-29T09:42:40;7.57;;;4.50;;
73841;SDS011;62184;52.006;5.924;2022-07-29T09:45:08;6.90;;;4.38;;
73841;SDS011;62184;52.006;5.924;2022-07-29T09:47:42;7.07;;;4.32;;
73841;SDS011;62184;52.006;5.924;2022-07-29T09:50:11;8.77;;;4.10;;
73841;SDS011;62184;52.006;5.924;2022-07-29T09:52:46;7.88;;;4.03;;
73841;SDS011;62184;52.006;5.924;2022-07-29T09:55:16;7.88;;;4.13;;
73841;SDS011;62184;52.006;5.924;2022-07-29T09:57:43;6.63;;;4.50;;
73841;SDS011;62184;52.006;5.924;2022-07-29T10:00:12;6.85;;;4.43;;
73841;SDS011;62184;52.006;5.924;2022-07-29T10:02:41;6.78;;;3.88;;
73841;SDS011;62184;52.006;5.924;2022-07-29T10:05:17;6.43;;;3.75;;
73841;SDS011;62184;52.006;5.924;2022-07-29T10:07:50;10.80;;;4.13;;
73841;SDS011;62184;52.006;5.924;2022-07-29T10:10:18;7.80;;;3.95;;
73841;SDS011;62184;52.006;5.924;2022-07-29T10:12:48;8.70;;;4.25;;
73841;SDS011;62184;52.006;5.924;2022-07-29T10:15:18;7.78;;;4.30;;
73841;SDS011;62184;52.006;5.924;2022-07-29T10:17:47;9.25;;;4.30;;
73841;SDS011;62184;52.006;5.924;2022-07-29T10:20:14;7.80;;;3.92;;
73841;SDS011;62184;52.006;5.924;2022-07-29T10:22:42;7.05;;;3.95;;
73841;SDS011;62184;52.006;5.924;2022-07-29T10:25:11;7.20;;;3.83;;
73841;SDS011;62184;52.006;5.924;2022-07-29T10:27:37;7.22;;;4.10;;
73841;SDS011;62184;52.006;5.924;2022-07-29T10:30:05;8.50;;;3.80;;
73841;SDS011;62184;52.006;5.924;2022-07-29T10:32:35;6.20;;;3.10;;
73841;SDS011;62184;52.006;5.924;2022-07-29T10:35:28;6.75;;;3.70;;
73841;SDS011;62184;52.006;5.924;2022-07-29T10:38:15;7.57;;;4.43;;
73841;SDS011;62184;52.006;5.924;2022-07-29T10:44:14;7.85;;;3.97;;
73841;SDS011;62184;52.006;5.924;2022-07-29T10:46:44;6.97;;;3.63;;
73841;SDS011;62184;52.006;5.924;2022-07-29T10:49:12;6.63;;;3.50;;
73841;SDS011;62184;52.006;5.924;2022-07-29T10:51:54;7.23;;;3.50;;
73841;SDS011;62184;52.006;5.924;2022-07-29T10:57:20;8.55;;;3.78;;
73841;SDS011;62184;52.006;5.924;2022-07-29T11:02:53;10.75;;;3.55;;
73841;SDS011;62184;52.006;5.924;2022-07-29T11:05:19;7.23;;;4.23;;
73841;SDS011;62184;52.006;5.924;2022-07-29T11:10:49;7.25;;;4.35;;
73841;SDS011;62184;52.006;5.924;2022-07-29T11:16:17;6.93;;;3.90;;
73841;SDS011;62184;52.006;5.924;2022-07-29T11:21:46;7.50;;;4.00;;
73841;SDS011;62184;52.006;5.924;2022-07-29T11:24:13;10.00;;;3.78;;
73841;SDS011;62184;52.006;5.924;2022-07-29T11:26:42;7.18;;;3.60;;
73841;SDS011;62184;52.006;5.924;2022-07-29T11:29:17;7.63;;;3.80;;
73841;SDS011;62184;52.006;5.924;2022-07-29T11:31:46;5.77;;;4.20;;
73841;SDS011;62184;52.006;5.924;2022-07-29T11:34:19;7.45;;;3.67;;
73841;SDS011;62184;52.006;5.924;2022-07-29T11:39:44;6.72;;;3.10;;
73841;SDS011;62184;52.006;5.924;2022-07-29T11:45:21;7.10;;;3.23;;
73841;SDS011;62184;52.006;5.924;2022-07-29T11:47:51;7.10;;;2.95;;
73841;SDS011;62184;52.006;5.924;2022-07-29T11:50:26;7.35;;;3.60;;
73841;SDS011;62184;52.006;5.924;2022-07-29T11:52:56;7.72;;;3.55;;
73841;SDS011;62184;52.006;5.924;2022-07-29T11:55:23;7.35;;;2.80;;
73841;SDS011;62184;52.006;5.924;2022-07-29T11:57:51;6.67;;;3.30;;
73841;SDS011;62184;52.006;5.924;2022-07-29T12:00:26;7.55;;;3.33;;
73841;SDS011;62184;52.006;5.924;2022-07-29T12:02:55;8.05;;;3.15;;
73841;SDS011;62184;52.006;5.924;2022-07-29T12:05:31;6.38;;;3.47;;
73841;SDS011;62184;52.006;5.924;2022-07-29T12:08:05;7.90;;;3.50;;
73841;SDS011;62184;52.006;5.924;2022-07-29T12:10:41;6.80;;;4.20;;
73841;SDS011;62184;52.006;5.924;2022-07-29T12:13:08;5.28;;;3.00;;
73841;SDS011;62184;52.006;5.924;2022-07-29T12:15:38;6.60;;;3.20;;
73841;SDS011;62184;52.006;5.924;2022-07-29T12:18:09;8.07;;;3.72;;
73841;SDS011;62184;52.006;5.924;2022-07-29T12:20:44;7.13;;;3.72;;
73841;SDS011;62184;52.006;5.924;2022-07-29T12:23:11;11.60;;;3.50;;
73841;SDS011;62184;52.006;5.924;2022-07-29T12:25:39;6.28;;;2.80;;
73841;SDS011;62184;52.006;5.924;2022-07-29T12:28:08;7.32;;;2.92;;
73841;SDS011;62184;52.006;5.924;2022-07-29T12:30:43;7.07;;;3.00;;
73841;SDS011;62184;52.006;5.924;2022-07-29T12:33:13;9.07;;;3.03;;
73841;SDS011;62184;52.006;5.924;2022-07-29T12:35:43;7.03;;;2.90;;
73841;SDS011;62184;52.006;5.924;2022-07-29T12:38:12;6.65;;;3.13;;
73841;SDS011;62184;52.006;5.924;2022-07-29T12:40:39;7.32;;;2.85;;
73841;SDS011;62184;52.006;5.924;2022-07-29T12:43:07;6.45;;;3.05;;
73841;SDS011;62184;52.006;5.924;2022-07-29T12:45:35;6.15;;;2.83;;
73841;SDS011;62184;52.006;5.924;2022-07-29T12:48:06;5.93;;;3.03;;
73841;SDS011;62184;52.006;5.924;2022-07-29T12:50:33;6.13;;;2.90;;
73841;SDS011;62184;52.006;5.924;2022-07-29T12:53:11;5.38;;;2.80;;
73841;SDS011;62184;52.006;5.924;2022-07-29T12:55:38;5.30;;;2.35;;
73841;SDS011;62184;52.006;5.924;2022-07-29T12:58:10;6.85;;;2.60;;
73841;SDS011;62184;52.006;5.924;2022-07-29T13:00:36;5.57;;;3.20;;
73841;SDS011;62184;52.006;5.924;2022-07-29T13:03:06;5.20;;;2.70;;
73841;SDS011;62184;52.006;5.924;2022-07-29T13:05:39;6.30;;;2.42;;
73841;SDS011;62184;52.006;5.924;2022-07-29T13:08:13;5.55;;;2.35;;
73841;SDS011;62184;52.006;5.924;2022-07-29T13:10:42;5.38;;;2.47;;
73841;SDS011;62184;52.006;5.924;2022-07-29T13:13:09;6.00;;;2.57;;
73841;SDS011;62184;52.006;5.924;2022-07-29T13:15:37;4.72;;;2.60;;
73841;SDS011;62184;52.006;5.924;2022-07-29T13:20:57;4.88;;;2.70;;
73841;SDS011;62184;52.006;5.924;2022-07-29T13:23:36;6.82;;;2.33;;
73841;SDS011;62184;52.006;5.924;2022-07-29T13:26:05;4.60;;;2.30;;
73841;SDS011;62184;52.006;5.924;2022-07-29T13:28:32;4.57;;;2.47;;
73841;SDS011;62184;52.006;5.924;2022-07-29T13:30:59;5.00;;;2.67;;
73841;SDS011;62184;52.006;5.924;2022-07-29T13:33:25;4.85;;;2.20;;
73841;SDS011;62184;52.006;5.924;2022-07-29T13:35:54;5.03;;;2.40;;
73841;SDS011;62184;52.006;5.924;2022-07-29T13:38:21;5.27;;;2.27;;
73841;SDS011;62184;52.006;5.924;2022-07-29T13:40:47;5.77;;;2.87;;
73841;SDS011;62184;52.006;5.924;2022-07-29T13:43:14;5.57;;;2.55;;
73841;SDS011;62184;52.006;5.924;2022-07-29T13:45:41;6.03;;;2.60;;
73841;SDS011;62184;52.006;5.924;2022-07-29T13:48:07;5.95;;;2.05;;
73841;SDS011;62184;52.006;5.924;2022-07-29T13:50:36;6.00;;;2.50;;
73841;SDS011;62184;52.006;5.924;2022-07-29T13:53:03;6.13;;;2.90;;
73841;SDS011;62184;52.006;5.924;2022-07-29T13:55:29;8.18;;;2.42;;
73841;SDS011;62184;52.006;5.924;2022-07-29T13:57:55;5.47;;;2.30;;
73841;SDS011;62184;52.006;5.924;2022-07-29T14:00:22;5.93;;;2.45;;
73841;SDS011;62184;52.006;5.924;2022-07-29T14:02:48;6.17;;;2.20;;
73841;SDS011;62184;52.006;5.924;2022-07-29T14:05:15;5.00;;;2.40;;
73841;SDS011;62184;52.006;5.924;2022-07-29T14:07:44;5.82;;;2.60;;
73841;SDS011;62184;52.006;5.924;2022-07-29T14:10:10;5.90;;;3.15;;
73841;SDS011;62184;52.006;5.924;2022-07-29T14:12:36;6.07;;;3.00;;
73841;SDS011;62184;52.006;5.924;2022-07-29T14:15:04;5.23;;;2.43;;
73841;SDS011;62184;52.006;5.924;2022-07-29T14:17:31;7.13;;;2.92;;
73841;SDS011;62184;52.006;5.924;2022-07-29T14:19:58;5.30;;;2.97;;
73841;SDS011;62184;52.006;5.924;2022-07-29T14:22:24;5.82;;;3.17;;
73841;SDS011;62184;52.006;5.924;2022-07-29T14:24:53;7.20;;;2.55;;
73841;SDS011;62184;52.006;5.924;2022-07-29T14:27:20;6.40;;;2.50;;
73841;SDS011;62184;52.006;5.924;2022-07-29T14:29:46;5.05;;;2.58;;
73841;SDS011;62184;52.006;5.924;2022-07-29T14:32:12;6.25;;;2.92;;
73841;SDS011;62184;52.006;5.924;2022-07-29T14:34:39;6.03;;;2.92;;
73841;SDS011;62184;52.006;5.924;2022-07-29T14:37:05;5.30;;;2.47;;
73841;SDS011;62184;52.006;5.924;2022-07-29T14:39:32;6.67;;;2.57;;
73841;SDS011;62184;52.006;5.924;2022-07-29T14:42:02;4.55;;;2.30;;
73841;SDS011;62184;52.006;5.924;2022-07-29T14:44:29;4.75;;;2.28;;
73841;SDS011;62184;52.006;5.924;2022-07-29T14:46:56;6.35;;;2.75;;
73841;SDS011;62184;52.006;5.924;2022-07-29T14:49:22;5.22;;;2.10;;
73841;SDS011;62184;52.006;5.924;2022-07-29T14:51:49;5.07;;;2.97;;
73841;SDS011;62184;52.006;5.924;2022-07-29T14:54:15;5.13;;;2.72;;
73841;SDS011;62184;52.006;5.924;2022-07-29T14:56:44;5.45;;;2.78;;
73841;SDS011;62184;52.006;5.924;2022-07-29T14:59:13;5.32;;;2.63;;
73841;SDS011;62184;52.006;5.924;2022-07-29T15:01:39;6.13;;;2.60;;
73841;SDS011;62184;52.006;5.924;2022-07-29T15:04:06;5.50;;;2.93;;
73841;SDS011;62184;52.006;5.924;2022-07-29T15:06:32;4.95;;;2.67;;
73841;SDS011;62184;52.006;5.924;2022-07-29T15:08:58;5.55;;;2.60;;
73841;SDS011;62184;52.006;5.924;2022-07-29T15:11:25;5.10;;;2.45;;
73841;SDS011;62184;52.006;5.924;2022-07-29T15:13:51;8.10;;;2.97;;
73841;SDS011;62184;52.006;5.924;2022-07-29T15:16:20;7.10;;;2.87;;
73841;SDS011;62184;52.006;5.924;2022-07-29T15:18:49;5.57;;;2.33;;
73841;SDS011;62184;52.006;5.924;2022-07-29T15:21:16;5.43;;;2.85;;
73841;SDS011;62184;52.006;5.924;2022-07-29T15:23:42;7.18;;;3.25;;
73841;SDS011;62184;52.006;5.924;2022-07-29T15:26:10;8.82;;;3.53;;
73841;SDS011;62184;52.006;5.924;2022-07-29T15:28:39;5.87;;;3.13;;